Time;durP1;ratioP1;P1;durP2;ratioP2;P2;SDS_P1;SDS_P2;PMS_P1;PMS_P2;Temp;Humidity;BMP_temperature;BMP_pressure;BME280_temperature;BME280_humidity;BME280_pressure;Samples;Min_cycle;Max_cycle;Signal;HPM_P1;HPM_P2
2022/05/01 00:01:39;;;;;;;16.58;11.98;;;;;;;6.88;100.00;102595.59;5071993;28;20120;-69
2022/05/01 00:04:04;;;;;;;21.02;13.20;;;;;;;6.82;100.00;102599.56;5072979;28;20033;-69
2022/05/01 00:06:33;;;;;;;19.58;12.75;;;;;;;6.83;100.00;102591.78;5073591;28;20064;-69
2022/05/01 00:09:00;;;;;;;19.95;13.05;;;;;;;6.80;100.00;102585.50;5073465;28;20052;-69
2022/05/01 00:11:25;;;;;;;21.83;13.55;;;;;;;6.82;100.00;102596.94;5072813;28;20024;-69
2022/05/01 00:13:51;;;;;;;20.23;13.23;;;;;;;6.78;100.00;102592.34;5073213;28;20027;-70
2022/05/01 00:16:16;;;;;;;19.13;12.35;;;;;;;6.70;100.00;102584.94;5073719;28;20417;-68
2022/05/01 00:18:42;;;;;;;23.98;13.63;;;;;;;6.60;100.00;102593.03;5036401;28;1057821;-70
2022/05/01 00:21:07;;;;;;;19.33;12.73;;;;;;;6.62;100.00;102591.41;5074408;28;20040;-69
2022/05/01 00:23:33;;;;;;;21.08;12.00;;;;;;;6.61;100.00;102584.38;5074469;28;20040;-69
2022/05/01 00:26:00;;;;;;;23.55;12.85;;;;;;;6.50;100.00;102585.44;5074358;28;20058;-69
2022/05/01 00:28:26;;;;;;;18.25;13.25;;;;;;;6.48;100.00;102585.31;5073808;28;20110;-69
2022/05/01 00:30:51;;;;;;;21.55;12.57;;;;;;;6.49;100.00;102579.28;5062670;28;20103;-69
2022/05/01 00:38:44;;;;;;;17.85;12.77;;;;;;;6.39;100.00;102585.66;5073543;28;20388;-68
2022/05/01 00:41:11;;;;;;;20.25;12.77;;;;;;;6.49;100.00;102583.63;5073837;28;20024;-68
2022/05/01 00:44:06;;;;;;;22.08;13.27;;;;;;;6.46;100.00;102573.88;5060427;28;20468;-68
2022/05/01 00:46:51;;;;;;;17.73;11.93;;;;;;;6.45;100.00;102572.06;5072202;28;20048;-68
2022/05/01 00:49:20;;;;;;;18.95;12.50;;;;;;;6.33;100.00;102566.09;5072900;28;20366;-69
2022/05/01 00:51:48;;;;;;;22.73;12.43;;;;;;;6.24;100.00;102566.44;5060991;28;20024;-69
2022/05/01 00:54:16;;;;;;;20.35;12.05;;;;;;;6.19;100.00;102565.25;5073366;28;20028;-69
2022/05/01 00:56:45;;;;;;;20.73;12.82;;;;;;;6.19;100.00;102565.25;5071526;28;20028;-70
2022/05/01 00:59:11;;;;;;;20.30;12.77;;;;;;;6.15;100.00;102560.63;5072887;28;20483;-70
2022/05/01 01:01:37;;;;;;;18.95;12.80;;;;;;;6.07;100.00;102563.63;5072411;28;20032;-69
2022/05/01 01:04:02;;;;;;;23.08;13.32;;;;;;;6.20;100.00;102556.56;5073212;28;20033;-69
2022/05/01 01:06:29;;;;;;;19.00;12.90;;;;;;;6.10;100.00;102552.47;5073329;28;20032;-68
2022/05/01 01:08:55;;;;;;;21.33;12.80;;;;;;;6.07;100.00;102553.19;5072044;28;20033;-68
2022/05/01 01:11:20;;;;;;;20.35;12.57;;;;;;;6.05;100.00;102552.22;5073179;28;20055;-70
2022/05/01 01:13:47;;;;;;;23.85;14.10;;;;;;;6.02;100.00;102552.03;5073013;28;20059;-69
2022/05/01 01:16:13;;;;;;;22.08;13.82;;;;;;;5.99;100.00;102551.81;5073296;28;20024;-70
2022/05/01 01:18:39;;;;;;;20.20;13.68;;;;;;;5.97;100.00;102548.19;5072632;28;20119;-70
2022/05/01 01:21:07;;;;;;;22.45;13.55;;;;;;;6.11;100.00;102553.41;5073498;28;20150;-70
2022/05/01 01:23:32;;;;;;;20.10;13.40;;;;;;;6.14;100.00;102553.59;5071835;28;20032;-69
2022/05/01 01:25:58;;;;;;;20.35;13.25;;;;;;;6.07;100.00;102547.06;5073280;28;20035;-69
2022/05/01 01:28:24;;;;;;;23.48;14.15;;;;;;;5.95;100.00;102551.50;5072562;28;20032;-70
2022/05/01 01:33:36;;;;;;;22.35;13.35;;;;;;;5.94;100.00;102539.22;5071465;28;20040;-69
2022/05/01 01:36:03;;;;;;;21.00;13.15;;;;;;;5.91;100.00;102550.38;5067849;28;20043;-69
2022/05/01 01:38:30;;;;;;;19.95;13.05;;;;;;;5.84;100.00;102543.88;5071974;28;20051;-69
2022/05/01 01:40:58;;;;;;;22.60;13.45;;;;;;;5.81;100.00;102545.41;5072809;28;20051;-70
2022/05/01 01:43:27;;;;;;;21.13;13.95;;;;;;;5.78;100.00;102539.97;5072862;28;20521;-69
2022/05/01 01:45:56;;;;;;;20.95;13.00;;;;;;;5.66;100.00;102542.72;5072820;28;20031;-69
2022/05/01 01:48:23;;;;;;;21.20;13.68;;;;;;;5.58;100.00;102540.50;5072473;28;20027;-68
2022/05/01 01:50:57;;;;;;;21.45;13.38;;;;;;;5.57;100.00;102549.16;5071429;28;20377;-69
2022/05/01 01:53:22;;;;;;;22.48;13.73;;;;;;;5.61;100.00;102544.13;5072474;28;20379;-69
2022/05/01 01:55:47;;;;;;;25.25;14.63;;;;;;;5.61;100.00;102544.13;5072932;28;20024;-68
2022/05/01 01:58:13;;;;;;;24.25;13.23;;;;;;;5.54;100.00;102553.28;5072886;28;20035;-69
2022/05/01 02:00:38;;;;;;;24.08;14.50;;;;;;;5.50;100.00;102556.50;5072299;28;20422;-69
2022/05/01 02:03:05;;;;;;;17.90;13.23;;;;;;;5.47;100.00;102551.97;5072700;28;20100;-69
2022/05/01 02:05:32;;;;;;;23.40;14.60;;;;;;;5.49;100.00;102554.69;5071129;28;20040;-69
2022/05/01 02:07:57;;;;;;;20.67;13.98;;;;;;;5.53;100.00;102551.47;5071361;28;20119;-69
2022/05/01 02:10:24;;;;;;;21.60;14.73;;;;;;;5.53;100.00;102541.91;5071208;28;20119;-70
2022/05/01 02:12:50;;;;;;;21.13;15.13;;;;;;;5.46;100.00;102547.53;5071961;28;20090;-69
2022/05/01 02:15:16;;;;;;;19.30;14.25;;;;;;;5.42;100.00;102544.66;5072804;28;20021;-69
2022/05/01 02:17:42;;;;;;;20.95;13.68;;;;;;;5.41;100.00;102546.34;5072236;28;20330;-69
2022/05/01 02:20:08;;;;;;;27.70;14.82;;;;;;;5.32;100.00;102541.44;5070793;28;20056;-69
2022/05/01 02:22:34;;;;;;;21.10;14.35;;;;;;;5.38;100.00;102541.81;5072243;28;20024;-69
2022/05/01 02:25:00;;;;;;;24.05;14.85;;;;;;;5.38;100.00;102540.94;5071216;28;20537;-69
2022/05/01 02:27:25;;;;;;;20.63;14.18;;;;;;;5.36;100.00;102537.31;5072365;28;20024;-69
2022/05/01 02:29:51;;;;;;;23.20;15.18;;;;;;;5.42;100.00;102534.22;5072368;28;20025;-69
2022/05/01 02:32:16;;;;;;;24.17;14.75;;;;;;;5.55;100.00;102528.97;5072255;28;20020;-70
2022/05/01 02:34:41;;;;;;;22.55;14.85;;;;;;;5.48;100.00;102526.75;5070734;28;20024;-69
2022/05/01 02:37:07;;;;;;;22.40;14.70;;;;;;;5.46;100.00;102533.59;5065292;28;20024;-68
2022/05/01 02:39:34;;;;;;;19.40;14.13;;;;;;;5.45;100.00;102531.78;5072064;28;20032;-70
2022/05/01 02:41:59;;;;;;;22.35;15.05;;;;;;;5.42;100.00;102531.59;5072555;28;20357;-69
2022/05/01 02:44:24;;;;;;;24.45;15.48;;;;;;;5.44;100.00;102519.53;5071894;28;20035;-69
2022/05/01 02:46:50;;;;;;;22.75;13.10;;;;;;;5.34;100.00;102523.25;5071758;28;20104;-69
2022/05/01 02:49:15;;;;;;;24.35;14.60;;;;;;;5.25;100.00;102520.97;5071833;28;20032;-70
2022/05/01 02:51:41;;;;;;;24.00;15.52;;;;;;;5.28;100.00;102522.88;5071020;28;20119;-69
2022/05/01 02:54:06;;;;;;;24.00;14.98;;;;;;;5.23;100.00;102519.94;5072167;28;20036;-70
2022/05/01 02:56:32;;;;;;;22.55;15.02;;;;;;;5.23;100.00;102514.72;5072114;28;20078;-70
2022/05/01 02:58:57;;;;;;;22.73;14.35;;;;;;;5.20;100.00;102514.53;5072134;28;20380;-69
2022/05/01 03:01:23;;;;;;;21.60;14.10;;;;;;;5.18;100.00;102516.13;5071716;28;20052;-69
2022/05/01 03:03:49;;;;;;;21.50;14.90;;;;;;;5.13;100.00;102518.44;5071963;28;20063;-69
2022/05/01 03:06:15;;;;;;;25.27;15.95;;;;;;;5.13;100.00;102520.13;5064530;28;20028;-69
2022/05/01 03:08:40;;;;;;;25.63;14.77;;;;;;;5.10;100.00;102514.72;5071638;28;20028;-69
2022/05/01 03:11:06;;;;;;;21.80;15.68;;;;;;;5.05;100.00;102512.72;5072831;28;20028;-68
2022/05/01 03:13:31;;;;;;;24.70;15.95;;;;;;;5.02;100.00;102512.53;5075386;28;20024;-69
2022/05/01 03:15:56;;;;;;;23.08;16.05;;;;;;;4.99;100.00;102511.41;5075777;28;20073;-68
2022/05/01 03:23:50;;;;;;;28.52;16.05;;;;;;;4.92;100.00;102507.47;5075809;28;20075;-69
2022/05/01 03:26:18;;;;;;;26.88;16.10;;;;;;;4.88;100.00;102500.25;5075663;28;20032;-69
2022/05/01 03:28:45;;;;;;;23.02;15.18;;;;;;;4.88;100.00;102500.25;5075406;28;20052;-69
2022/05/01 03:31:12;;;;;;;26.45;15.63;;;;;;;4.92;100.00;102506.59;5074528;28;20029;-68
2022/05/01 03:33:38;;;;;;;23.77;16.33;;;;;;;4.86;100.00;102507.09;5075127;28;20059;-69
2022/05/01 03:36:06;;;;;;;24.50;15.50;;;;;;;4.82;100.00;102505.09;5074302;28;20060;-69
2022/05/01 03:38:35;;;;;;;23.05;15.20;;;;;;;4.75;100.00;102502.84;5073972;28;20031;-69
2022/05/01 03:41:01;;;;;;;25.75;15.75;;;;;;;4.78;100.00;102503.06;5075300;28;20036;-69
2022/05/01 03:43:26;;;;;;;23.95;15.90;;;;;;;4.75;100.00;102500.22;5075130;28;20537;-69
2022/05/01 03:45:51;;;;;;;25.85;17.33;;;;;;;4.74;100.00;102496.72;5074792;28;20032;-69
2022/05/01 03:48:17;;;;;;;25.83;16.48;;;;;;;4.69;100.00;102496.44;5075060;28;20036;-70
2022/05/01 03:50:42;;;;;;;27.58;16.65;;;;;;;4.72;100.00;102509.66;5075167;28;20395;-69
2022/05/01 03:53:07;;;;;;;25.67;15.90;;;;;;;4.70;100.00;102493.00;5075031;28;20105;-69
2022/05/01 03:55:33;;;;;;;25.77;15.68;;;;;;;4.65;100.00;102494.44;5073679;28;20097;-68
2022/05/01 03:58:00;;;;;;;23.02;15.18;;;;;;;4.65;100.00;102496.09;5075035;28;20023;-69
2022/05/01 04:00:25;;;;;;;25.40;15.43;;;;;;;4.65;100.00;102490.91;5074458;28;20491;-69
2022/05/01 04:02:52;;;;;;;28.08;14.90;;;;;;;4.66;100.00;102491.00;5074641;28;20032;-69
2022/05/01 04:05:17;;;;;;;23.23;15.77;;;;;;;4.62;100.00;102496.81;5075051;28;20024;-69
2022/05/01 04:07:43;;;;;;;25.15;16.00;;;;;;;4.60;100.00;102492.28;5074387;28;20384;-69
2022/05/01 04:10:09;;;;;;;22.30;14.90;;;;;;;4.62;100.00;102493.31;5074650;28;20059;-71
2022/05/01 04:12:39;;;;;;;25.05;16.23;;;;;;;4.65;100.00;102501.31;5074611;28;20098;-68
2022/05/01 04:15:09;;;;;;;25.75;16.27;;;;;;;4.60;100.00;102502.72;5074518;28;20024;-69
2022/05/01 04:17:41;;;;;;;24.92;16.35;;;;;;;4.61;100.00;102500.19;5074261;28;20533;-70
2022/05/01 04:20:09;;;;;;;26.45;16.85;;;;;;;4.64;100.00;102497.81;5074181;28;20345;-69
2022/05/01 04:22:45;;;;;;;24.77;15.15;;;;;;;4.60;100.00;102501.03;5072921;28;20044;-69
2022/05/01 04:25:16;;;;;;;25.58;16.30;;;;;;;4.65;100.00;102497.03;5074631;28;20017;-68
2022/05/01 04:27:47;;;;;;;25.35;15.65;;;;;;;4.71;100.00;102497.44;5073997;28;20028;-69
2022/05/01 04:30:14;;;;;;;24.00;15.02;;;;;;;4.77;100.00;102493.44;5074164;28;20029;-69
2022/05/01 04:32:53;;;;;;;24.45;15.43;;;;;;;4.77;100.00;102498.66;5074251;28;20028;-68
2022/05/01 04:35:29;;;;;;;26.33;16.35;;;;;;;4.85;100.00;102502.66;5073794;28;20054;-69
2022/05/01 04:37:59;;;;;;;25.92;15.75;;;;;;;4.81;100.00;102500.66;5072465;28;20028;-68
2022/05/01 04:40:28;;;;;;;29.60;17.02;;;;;;;4.95;100.00;102497.28;5067956;28;20047;-68
2022/05/01 04:43:03;;;;;;;25.40;15.93;;;;;;;5.04;100.00;102503.06;5073461;28;20372;-69
2022/05/01 04:45:32;;;;;;;26.10;16.35;;;;;;;5.36;100.00;102506.00;5073899;28;20412;-69
2022/05/01 04:47:58;;;;;;;26.92;15.73;;;;;;;5.26;100.00;102509.69;5074149;28;20086;-68
2022/05/01 04:50:25;;;;;;;26.60;15.40;;;;;;;5.30;100.00;102506.47;5073812;28;20028;-69
2022/05/01 04:52:50;;;;;;;27.20;17.50;;;;;;;5.39;100.00;102508.81;5073571;28;20043;-70
2022/05/01 04:55:16;;;;;;;29.15;17.83;;;;;;;5.40;100.00;102508.91;5073869;28;20021;-70
2022/05/01 04:57:41;;;;;;;31.05;17.13;;;;;;;5.46;100.00;102512.72;5072400;28;20388;-70
2022/05/01 05:00:07;;;;;;;24.05;16.42;;;;;;;5.48;100.00;102512.00;5073876;28;20051;-70
2022/05/01 05:02:41;;;;;;;23.55;15.38;;;;;;;5.55;100.00;102515.91;5073324;28;20035;-69
2022/05/01 05:05:09;;;;;;;26.25;16.27;;;;;;;5.65;100.00;102514.78;5073469;28;20070;-69
2022/05/01 05:07:35;;;;;;;27.60;16.67;;;;;;;5.72;100.00;102515.28;5072586;28;20426;-69
2022/05/01 05:10:01;;;;;;;25.77;16.73;;;;;;;5.84;100.00;102517.75;5073815;28;20028;-71
2022/05/01 05:12:27;;;;;;;29.73;17.90;;;;;;;5.91;100.00;102526.88;5069305;28;20040;-68
2022/05/01 05:14:55;;;;;;;27.23;17.25;;;;;;;6.05;100.00;102528.69;5072979;28;20028;-69
2022/05/01 05:17:21;;;;;;;30.05;18.20;;;;;;;6.15;100.00;102532.78;5073445;28;20126;-69
2022/05/01 05:19:47;;;;;;;24.83;17.05;;;;;;;6.23;100.00;102541.09;5073051;28;20056;-69
2022/05/01 05:22:13;;;;;;;29.77;17.23;;;;;;;6.33;100.00;102539.94;5073005;28;20391;-68
2022/05/01 05:24:39;;;;;;;27.80;18.00;;;;;;;6.42;100.00;102530.03;5073295;28;20024;-68
2022/05/01 05:27:04;;;;;;;30.73;19.30;;;;;;;6.55;100.00;102531.69;5073141;28;20024;-68
2022/05/01 05:29:29;;;;;;;39.35;22.70;;;;;;;6.61;100.00;102537.28;5073409;28;20032;-69
2022/05/01 05:31:55;;;;;;;34.58;21.55;;;;;;;6.77;100.00;102538.19;5072450;28;20486;-69
2022/05/01 05:34:20;;;;;;;38.58;22.17;;;;;;;6.83;100.00;102543.81;5071834;28;20032;-68
2022/05/01 05:36:46;;;;;;;37.47;22.65;;;;;;;6.81;100.00;102540.19;5072991;28;20020;-69
2022/05/01 05:39:12;;;;;;;36.92;23.25;;;;;;;6.93;100.00;102540.91;5073038;28;20025;-69
2022/05/01 05:41:37;;;;;;;44.20;24.00;;;;;;;6.97;100.00;102542.88;5071557;28;20026;-69
2022/05/01 05:44:04;;;;;;;40.63;22.80;;;;;;;7.05;100.00;102541.66;5072749;28;20379;-70
2022/05/01 05:46:29;;;;;;;40.67;22.77;;;;;;;7.13;100.00;102543.81;5071197;28;20089;-69
2022/05/01 05:48:55;;;;;;;39.70;22.73;;;;;;;7.05;100.00;102549.50;5071647;28;20084;-69
2022/05/01 05:51:20;;;;;;;41.53;22.50;;;;;;;7.17;100.00;102553.63;5071698;28;20091;-69
2022/05/01 05:53:46;;;;;;;40.25;21.90;;;;;;;7.19;100.00;102554.59;5072952;28;20477;-70
2022/05/01 05:56:11;;;;;;;36.13;21.13;;;;;;;7.29;100.00;102556.97;5072683;28;20472;-69
2022/05/01 05:58:36;;;;;;;36.72;22.50;;;;;;;7.38;100.00;102557.50;5072921;28;20380;-69
2022/05/01 06:01:01;;;;;;;39.38;22.50;;;;;;;7.41;100.00;102562.91;5072419;28;20494;-69
2022/05/01 06:03:27;;;;;;;32.80;21.42;;;;;;;7.52;100.00;102565.25;5072757;28;20036;-70
2022/05/01 06:05:52;;;;;;;37.90;22.85;;;;;;;7.56;100.00;102559.34;5072836;28;20028;-68
2022/05/01 06:08:17;;;;;;;36.72;21.55;;;;;;;7.63;100.00;102564.13;5072786;28;20035;-70
2022/05/01 06:10:43;;;;;;;30.88;20.73;;;;;;;7.70;100.00;102557.50;5072471;28;20024;-69
2022/05/01 06:13:08;;;;;;;34.58;22.52;;;;;;;7.76;100.00;102561.38;5072513;28;20032;-68
2022/05/01 06:15:34;;;;;;;35.22;22.35;;;;;;;7.80;100.00;102564.16;5071119;28;20033;-70
2022/05/01 06:17:59;;;;;;;32.40;22.17;;;;;;;7.75;100.00;102554.31;5072517;28;20028;-69
2022/05/01 06:20:26;;;;;;;36.90;22.40;;;;;;;7.89;100.00;102564.66;5070865;28;20078;-69
2022/05/01 06:22:51;;;;;;;30.25;19.80;;;;;;;7.93;100.00;102567.56;5072421;28;20418;-70
2022/05/01 06:25:17;;;;;;;30.95;20.35;;;;;;;8.06;100.00;102569.13;5072341;28;20028;-70
2022/05/01 06:27:42;;;;;;;35.40;19.80;;;;;;;8.15;100.00;102565.19;5071476;28;20020;-69
2022/05/01 06:30:11;;;;;;;27.40;18.85;;;;;;;8.19;100.00;102561.91;5071130;28;20034;-71
2022/05/01 06:32:38;;;;;;;26.90;18.38;;;;;;;8.10;100.00;102557.09;5072421;28;20480;-69
2022/05/01 06:35:04;;;;;;;27.13;18.52;;;;;;;8.20;100.00;102556.75;5072332;28;20476;-69
2022/05/01 06:37:29;;;;;;;29.60;18.33;;;;;;;8.40;100.00;102556.94;5072355;28;20040;-70
2022/05/01 06:39:55;;;;;;;32.67;18.88;;;;;;;8.31;100.00;102552.09;5071908;28;20445;-69
2022/05/01 06:42:20;;;;;;;28.13;19.08;;;;;;;8.36;100.00;102558.47;5072351;28;20053;-69
2022/05/01 06:44:46;;;;;;;32.63;20.10;;;;;;;8.35;100.00;102564.53;5072539;28;20101;-69
2022/05/01 06:47:13;;;;;;;32.00;20.27;;;;;;;8.30;100.00;102562.50;5074697;28;20025;-70
2022/05/01 06:49:38;;;;;;;34.55;21.40;;;;;;;8.47;100.00;102558.19;5076032;28;20530;-69
2022/05/01 06:52:04;;;;;;;29.48;19.52;;;;;;;8.56;100.00;102559.56;5075940;28;20017;-69
2022/05/01 06:54:29;;;;;;;32.13;19.42;;;;;;;8.62;100.00;102556.38;5091591;28;20048;-70
2022/05/01 06:56:54;;;;;;;29.98;19.75;;;;;;;8.66;100.00;102555.69;5074911;28;20024;-69
2022/05/01 06:59:20;;;;;;;27.77;18.73;;;;;;;8.73;100.00;102552.56;5075567;28;20032;-70
2022/05/01 07:01:47;;;;;;;31.77;18.33;;;;;;;8.82;100.00;102553.84;5075966;28;20439;-69
2022/05/01 07:04:13;;;;;;;29.48;19.33;;;;;;;8.86;100.00;102555.84;5075868;28;20026;-69
2022/05/01 07:06:38;;;;;;;27.02;18.48;;;;;;;8.89;100.00;102549.00;5075862;28;20375;-69
2022/05/01 07:09:04;;;;;;;24.65;16.30;;;;;;;9.02;100.00;102542.69;5075245;28;20039;-70
2022/05/01 07:11:29;;;;;;;25.55;17.40;;;;;;;9.00;100.00;102552.19;5075565;28;20024;-69
2022/05/01 07:13:54;;;;;;;27.33;17.52;;;;;;;9.08;100.00;102545.59;5075192;28;20130;-69
2022/05/01 07:16:20;;;;;;;26.95;17.02;;;;;;;9.08;100.00;102549.94;5075261;28;20027;-68
2022/05/01 07:18:46;;;;;;;28.45;17.08;;;;;;;8.96;100.00;102547.59;5075708;28;20136;-67
2022/05/01 07:21:11;;;;;;;20.63;15.85;;;;;;;9.06;100.00;102549.88;5075750;28;20063;-69
2022/05/01 07:23:37;;;;;;;23.83;16.65;;;;;;;9.14;100.00;102545.00;5075540;28;20111;-69
2022/05/01 07:26:02;;;;;;;26.55;15.77;;;;;;;9.15;100.00;102552.06;5074258;28;20021;-70
2022/05/01 07:28:27;;;;;;;25.95;16.27;;;;;;;9.08;100.00;102544.69;5074788;28;20032;-70
2022/05/01 07:30:53;;;;;;;22.50;14.32;;;;;;;9.08;100.00;102549.94;5075313;28;20025;-69
2022/05/01 07:33:18;;;;;;;25.25;15.95;;;;;;;9.19;100.00;102548.75;5075110;28;20383;-71
2022/05/01 07:35:43;;;;;;;24.33;15.50;;;;;;;9.24;100.00;102551.63;5075221;28;20025;-71
2022/05/01 07:38:09;;;;;;;30.55;15.50;;;;;;;9.24;100.00;102546.38;5074127;28;20009;-70
2022/05/01 07:40:34;;;;;;;24.00;16.15;;;;;;;9.22;100.00;102553.25;5075085;28;20024;-71
2022/05/01 07:42:59;;;;;;;27.42;15.05;;;;;;;9.35;100.00;102553.03;5075205;28;20036;-69
2022/05/01 07:45:25;;;;;;;20.00;14.13;;;;;;;9.43;100.00;102549.06;5074403;28;20032;-70
2022/05/01 07:47:50;;;;;;;20.02;13.88;;;;;;;9.51;100.00;102551.16;5074958;28;20029;-70
2022/05/01 07:50:17;;;;;;;18.75;13.35;;;;;;;9.57;100.00;102540.94;5073845;28;20029;-69
2022/05/01 07:52:42;;;;;;;20.25;13.57;;;;;;;9.71;100.00;102541.59;5074882;28;20033;-69
2022/05/01 07:55:08;;;;;;;17.88;13.38;;;;;;;9.78;100.00;102536.72;5074927;28;20043;-70
2022/05/01 07:57:33;;;;;;;20.85;12.63;;;;;;;9.90;100.00;102538.09;5073308;28;20479;-71
2022/05/01 07:59:59;;;;;;;21.50;12.40;;;;;;;9.90;100.00;102549.53;5074759;28;20028;-69
2022/05/01 08:02:33;;;;;;;15.80;11.95;;;;;;;10.01;100.00;102543.88;5073956;28;20396;-69
2022/05/01 08:04:58;;;;;;;15.70;11.40;;;;;;;10.10;100.00;102539.94;5075127;28;20379;-71
2022/05/01 08:07:23;;;;;;;19.65;13.35;;;;;;;10.01;100.00;102531.63;5073749;28;20103;-69
2022/05/01 08:09:49;;;;;;;22.17;13.30;;;;;;;10.08;100.00;102544.22;5073625;28;20028;-69
2022/05/01 08:12:14;;;;;;;21.13;12.32;;;;;;;10.15;100.00;102534.91;5074087;28;20016;-71
2022/05/01 08:14:41;;;;;;;19.30;12.13;;;;;;;10.30;100.00;102538.19;5074540;28;20044;-72
2022/05/01 08:17:07;;;;;;;15.70;11.10;;;;;;;10.39;100.00;102521.97;5074412;28;20492;-71
2022/05/01 08:22:16;;;;;;;;;;;;;;;10.53;92.86;102522.56;5074919;28;20035;-68
2022/05/01 08:24:42;;;;;;;13.90;8.50;;;;;;;10.62;93.28;102525.63;5073586;28;20372;-70
2022/05/01 08:27:07;;;;;;;12.55;8.80;;;;;;;10.72;92.76;102518.13;5074127;28;20028;-69
2022/05/01 08:29:33;;;;;;;11.10;6.35;;;;;;;11.06;88.73;102525.69;5073669;28;20020;-68
2022/05/01 08:32:00;;;;;;;10.68;6.45;;;;;;;11.13;83.85;102519.84;5073893;28;20024;-71
2022/05/01 08:34:25;;;;;;;14.00;6.55;;;;;;;11.20;87.29;102521.00;5074392;28;20024;-70
2022/05/01 08:36:51;;;;;;;10.43;7.25;;;;;;;11.00;85.07;102516.63;5069610;28;20033;-71
2022/05/01 08:39:16;;;;;;;11.07;7.13;;;;;;;11.11;82.52;102510.09;5072107;28;20100;-71
2022/05/01 08:41:42;;;;;;;12.40;7.30;;;;;;;11.14;85.65;102508.47;5070533;28;20530;-74
2022/05/01 08:44:12;;;;;;;13.50;7.25;;;;;;;11.32;84.44;102515.34;5072209;28;20384;-72
2022/05/01 08:46:59;;;;;;;7.50;5.70;;;;;;;11.35;78.49;102498.75;5069238;28;20056;-72
2022/05/01 08:49:25;;;;;;;9.32;7.00;;;;;;;11.41;79.15;102505.16;5070633;28;20020;-70
2022/05/01 08:51:52;;;;;;;10.68;7.07;;;;;;;11.34;79.57;102500.50;5073070;28;20468;-71
2022/05/01 08:54:17;;;;;;;12.63;7.38;;;;;;;11.39;78.39;102506.81;5071545;28;20408;-70
2022/05/01 08:56:44;;;;;;;11.50;7.05;;;;;;;11.38;79.39;102505.03;5072398;28;20023;-72
2022/05/01 08:59:11;;;;;;;9.60;6.95;;;;;;;11.59;82.93;102504.09;5072987;28;20036;-71
2022/05/01 09:01:39;;;;;;;12.05;7.45;;;;;;;11.60;77.69;102505.91;5074256;28;20028;-71
2022/05/01 09:04:06;;;;;;;10.25;6.20;;;;;;;11.90;77.15;102506.16;5070336;28;20381;-72
2022/05/01 09:06:35;;;;;;;9.52;6.18;;;;;;;12.20;76.99;102504.66;5072353;28;20462;-71
2022/05/01 09:09:07;;;;;;;7.30;5.43;;;;;;;12.56;74.50;102504.16;5069866;28;20048;-70
2022/05/01 09:14:17;;;;;;;7.93;5.75;;;;;;;13.03;69.99;102518.09;5071504;28;20434;-71
2022/05/01 09:17:13;;;;;;;11.30;6.55;;;;;;;13.42;67.07;102516.75;5072445;28;20054;-71
2022/05/01 09:19:39;;;;;;;8.98;6.75;;;;;;;13.49;69.06;102514.34;5083620;28;20102;-71
2022/05/01 09:22:04;;;;;;;8.43;6.60;;;;;;;13.24;65.29;102523.22;5065560;28;20017;-71
2022/05/01 09:24:30;;;;;;;8.90;6.32;;;;;;;13.25;70.04;102521.44;5071994;28;20051;-70
2022/05/01 09:26:57;;;;;;;12.55;7.10;;;;;;;13.35;70.78;102522.63;5072961;28;20044;-70
2022/05/01 09:29:24;;;;;;;9.95;7.38;;;;;;;13.22;65.86;102516.97;5070134;28;20024;-71
2022/05/01 09:31:50;;;;;;;9.63;5.95;;;;;;;13.04;67.55;102525.19;5070222;28;20392;-71
2022/05/01 09:34:23;;;;;;;13.90;7.78;;;;;;;12.97;66.78;102523.19;5061103;28;20031;-70
2022/05/01 09:36:50;;;;;;;11.13;7.13;;;;;;;12.98;68.16;102530.25;5070241;28;20039;-71
2022/05/01 09:39:20;;;;;;;9.38;6.88;;;;;;;13.10;68.25;102520.13;5072894;28;20016;-71
2022/05/01 09:41:47;;;;;;;8.25;6.40;;;;;;;13.16;68.41;102520.31;5072744;28;20384;-70
2022/05/01 09:44:14;;;;;;;13.77;7.60;;;;;;;12.93;67.04;102526.59;5072753;28;20020;-71
2022/05/01 09:46:42;;;;;;;13.48;7.72;;;;;;;12.99;69.25;102529.41;5073295;28;20039;-70
2022/05/01 09:49:13;;;;;;;11.00;7.38;;;;;;;12.92;66.70;102525.66;5072884;28;20388;-73
2022/05/01 09:51:46;;;;;;;8.18;6.72;;;;;;;12.91;64.46;102522.97;5070924;28;20095;-71
2022/05/01 09:54:27;;;;;;;9.38;6.30;;;;;;;12.92;64.23;102519.50;5071838;28;20025;-72
2022/05/01 09:56:54;;;;;;;8.48;6.75;;;;;;;12.75;64.75;102521.53;5071651;28;20379;-72
2022/05/01 09:59:22;;;;;;;7.78;6.97;;;;;;;12.68;64.54;102524.84;5073402;28;20052;-71
2022/05/01 10:02:00;;;;;;;10.18;6.95;;;;;;;12.59;68.01;102520.13;5072170;28;20040;-72
2022/05/01 10:04:26;;;;;;;10.45;6.55;;;;;;;12.78;66.89;102512.00;5071174;28;20025;-71
2022/05/01 10:06:55;;;;;;;9.20;6.05;;;;;;;12.79;65.01;102513.81;5072646;28;20186;-71
2022/05/01 10:09:23;;;;;;;7.63;6.20;;;;;;;13.04;65.91;102509.34;5072695;28;20526;-73
2022/05/01 10:11:53;;;;;;;8.13;6.57;;;;;;;13.11;63.44;102510.44;5071914;28;20380;-72
2022/05/01 10:14:20;;;;;;;10.75;7.57;;;;;;;13.04;63.61;102503.16;5071486;28;20055;-71
2022/05/01 10:16:46;;;;;;;9.27;6.53;;;;;;;13.04;65.32;102504.06;5072641;28;20056;-72
2022/05/01 10:19:14;;;;;;;10.90;7.38;;;;;;;13.10;65.95;102506.00;5071165;28;20043;-71
2022/05/01 10:21:40;;;;;;;10.60;6.97;;;;;;;12.80;67.42;102512.97;5075673;28;20048;-72
2022/05/01 10:24:07;;;;;;;15.02;6.93;;;;;;;13.03;68.73;102510.19;5075445;28;20112;-73
2022/05/01 10:26:37;;;;;;;10.85;6.93;;;;;;;13.35;65.50;102505.06;5076645;28;20467;-71
2022/05/01 10:29:37;;;;;;;13.27;6.93;;;;;;;13.80;64.34;102504.69;5072495;28;20391;-69
2022/05/01 10:32:23;;;;;;;9.20;6.63;;;;;;;13.89;59.38;102482.94;5075208;28;20036;-70
2022/05/01 10:35:19;;;;;;;10.65;7.03;;;;;;;14.14;63.11;102488.91;5074509;28;20024;-70
2022/05/01 10:38:09;;;;;;;7.88;6.70;;;;;;;14.62;61.85;102492.84;5075378;28;20039;-73
2022/05/01 10:40:56;;;;;;;12.30;6.80;;;;;;;15.05;65.32;102493.97;5064755;28;20046;-72
2022/05/01 10:43:33;;;;;;;8.98;6.63;;;;;;;15.18;58.25;102476.63;5075020;28;20395;-72
2022/05/01 10:46:21;;;;;;;7.85;6.45;;;;;;;15.24;58.80;102478.53;5073405;28;20052;-74
2022/05/01 10:48:46;;;;;;;13.02;6.95;;;;;;;15.36;56.14;102473.50;5085902;28;20143;-73
2022/05/01 10:51:30;;;;;;;8.15;6.53;;;;;;;15.61;59.04;102477.63;5071670;28;20133;-72
2022/05/01 10:54:14;;;;;;;;;;;;;;;16.02;57.59;102476.72;5074750;28;20480;-72
2022/05/01 10:56:50;;;;;;;10.17;6.60;;;;;;;16.11;58.47;102476.88;5071451;28;19912;-72
2022/05/01 10:59:42;;;;;;;9.68;6.82;;;;;;;16.32;56.96;102473.75;5073387;28;20496;-72
2022/05/01 11:02:24;;;;;;;10.77;7.28;;;;;;;16.65;55.12;102469.03;5069513;28;20043;-72
2022/05/01 11:04:52;;;;;;;7.32;6.55;;;;;;;16.59;55.99;102463.59;5072930;28;20024;-72
2022/05/01 11:07:18;;;;;;;8.27;7.10;;;;;;;17.14;55.89;102458.34;5071121;28;20062;-73
2022/05/01 11:09:49;;;;;;;10.52;6.78;;;;;;;16.61;55.43;102451.25;5074246;28;20048;-73
2022/05/01 11:12:17;;;;;;;9.43;6.15;;;;;;;16.99;53.76;102453.69;5069751;28;20020;-73
2022/05/01 11:15:01;;;;;;;8.20;6.15;;;;;;;16.93;46.90;102437.59;5073930;28;20032;-74
2022/05/01 11:17:49;;;;;;;7.75;6.03;;;;;;;17.28;50.45;102445.22;5073779;28;20036;-74
2022/05/01 11:20:24;;;;;;;7.30;6.13;;;;;;;17.23;49.40;102439.84;5073482;28;20111;-73
2022/05/01 11:22:50;;;;;;;10.23;5.88;;;;;;;17.07;49.04;102438.72;5071930;28;20040;-73
2022/05/01 11:25:33;;;;;;;8.15;5.95;;;;;;;17.10;53.24;102436.09;5074027;28;20040;-73
2022/05/01 11:27:59;;;;;;;6.22;5.55;;;;;;;17.71;48.90;102432.50;5073672;28;20460;-73
2022/05/01 11:30:27;;;;;;;13.90;5.88;;;;;;;17.61;43.43;102417.31;5055651;28;20024;-74
2022/05/01 11:33:00;;;;;;;6.35;4.93;;;;;;;17.09;42.88;102404.16;5065044;28;20372;-73
2022/05/01 11:35:56;;;;;;;8.45;5.38;;;;;;;17.53;47.53;102404.78;5069101;28;20029;-74